Aviation Digital Data Service (ADDS)

Output produced by METARs form (2219 UTC 20 October 2018)
found at http://www.aviationweather.gov/metar/data/
 
KLAF 202027Z 2020/2118 30026G40KT P6SM BKN070 
     FM202300 32020G31KT P6SM SCT070 
     FM210400 32010KT P6SM FEW200
       
KLAL 201736Z 2018/2118 VRB03KT P6SM SCT035 SCT250 
     FM202000 29005KT P6SM FEW045 SCT250 
     FM210800 VRB03KT 6SM BR SCT015 BKN080 
     FM211300 03009KT P6SM FEW035 SCT250
       
KLAN 201932Z 2020/2118 VRB06KT P6SM FEW050 SCT070 
     FM202300 34024G35KT P6SM -SHRA BKN035 
     FM210300 31012G20KT P6SM SCT150
       
KLAR 201739Z 2018/2118 18006KT P6SM SKC 
     FM202100 20005KT P6SM SKC 
     FM211200 22008KT P6SM SKC
       
KLAS 202030Z 2021/2124 05011KT P6SM SCT080 
     FM202300 VRB05KT P6SM BKN080 
     FM210300 34005KT P6SM BKN070 
     FM210600 VRB05KT P6SM VCSH OVC070 
     FM212200 12007KT P6SM VCSH OVC070
       
KLAX 202121Z 2021/2124 27012KT P6SM SKC 
     FM210300 25007KT P6SM SKC 
     FM210500 VRB03KT P6SM SKC 
     FM212000 26012KT P6SM SCT250
       
KLBB 201720Z 2018/2118 06011KT P6SM SCT250
       
KLBE 201730Z 2018/2118 25013G29KT P6SM VCSH BKN035 
     FM202200 27012G28KT 5SM -SHRA OVC040 
     FM210400 29013G32KT 5SM -SHRASN OVC020 
     FM211200 29013G23KT P6SM VCSH BKN025
       
KLBF 201720Z 2018/2118 36007KT P6SM SKC 
     FM202200 VRB04KT P6SM SKC 
     FM210800 17007KT P6SM SKC WS020/21035KT 
     FM211400 20007KT P6SM SKC
       
KLBL 201738Z 2018/2118 VRB05KT P6SM SKC 
     FM211400 21013KT P6SM SKC
       
KLBT 201723Z 2018/2118 25011KT P6SM VCSH BKN020 BKN060 
     TEMPO 2019/2023 5SM -RA SCT020 BKN060 
     FM210000 28008KT P6SM BKN030 
     FM210200 30010KT P6SM SKC 
     FM211400 34015G25KT P6SM SKC
       
KLCK 201720Z 2018/2118 24018G28KT P6SM BKN050 
     FM202000 26019G35KT P6SM BKN070 
     FM202200 28021G38KT P6SM -SHRA BKN040 
     FM210100 30021G42KT 5SM -SHSN BKN040 
     FM210300 31014G32KT P6SM BKN030 
     FM210500 32012G24KT P6SM SCT030 
     FM211100 31009KT P6SM SKC
       
KLCH 201740Z 2018/2118 01010KT P6SM VCSH BKN015 OVC020 
     TEMPO 2018/2022 3SM SHRA BKN008 OVC015 
     FM202200 02010KT P6SM OVC015 
     TEMPO 2022/2102 3SM SHRA BKN008 OVC015 
     FM210200 03014G20KT P6SM OVC050
       
KLEB 201735Z 2018/2118 24010G20KT P6SM SCT050 
     FM202200 VRB03KT P6SM BKN200 
     FM211000 33009KT P6SM BKN050 
     FM211500 34012G24KT P6SM SCT050
       
KLEE 201737Z 2018/2118 VRB04KT P6SM SCT040 
     FM202000 28006KT P6SM VCSH SCT045 BKN080 
     FM210200 32004KT P6SM FEW050 SCT250 
     FM211400 01011KT P6SM FEW040 BKN120
       
KLEX 201721Z 2018/2118 27018G27KT P6SM FEW040 
     FM202100 29024G36KT P6SM SCT200 
     FM210000 32024G37KT P6SM SCT100 
     FM210300 32013G21KT P6SM FEW250 
     FM211000 33006KT P6SM SKC
       
TAF KLFI 201700Z 2017/2123 28012KT 9000 -RA SCT030 BKN070 QNH2974INS 
     BECMG 2020/2021 29010G15KT 9999 NSW SCT020 QNH2973INS 
     BECMG 2105/2106 30015G25KT 9999 FEW035 QNH3000INS 
     TEMPO 2111/2117 31020G35KT 510005 
     BECMG 2119/2120 33015G25KT 9999 SKC QNH3000INS TX19/2020Z TN09/2103Z
       
KLFK 202005Z 2020/2118 01006KT P6SM OVC009 
     TEMPO 2020/2022 02009KT OVC015 
     FM202200 01011KT P6SM SCT008 OVC025 
     FM210000 02007KT P6SM BKN025 BKN250 
     FM210100 02006KT P6SM SCT035 BKN250 
     FM211400 05012G18KT P6SM BKN250
       
KLFT 201740Z 2018/2118 01011KT P6SM VCSH BKN015 OVC060 
     TEMPO 2018/2022 3SM SHRA BKN008 OVC015 
     FM202200 01010KT P6SM OVC015 
     TEMPO 2022/2102 3SM SHRA BKN008 OVC015 
     FM210200 03011G17KT P6SM OVC050
       
KLGA 202209Z 2022/2124 28011KT P6SM FEW040 SCT070 BKN250 
     FM210600 28010KT P6SM VCSH SCT025 BKN060 
     FM210900 30015G25KT P6SM SCT025 BKN060 BKN120 
     FM211400 32021G31KT P6SM FEW060 SCT120 
     FM211800 33023G33KT P6SM BKN050
       
KLGB 201735Z 2018/2118 VRB03KT P6SM SKC 
     FM202000 17007KT P6SM SKC 
     FM210000 29010KT P6SM SKC 
     FM210400 VRB03KT P6SM SCT250
       
KLGU 201736Z 2018/2118 VRB04KT P6SM SKC 
     FM211200 30006KT P6SM SCT100 SCT200
       
KLIT 201722Z 2018/2118 34012KT P6SM FEW040 BKN250 
     FM210000 03010KT P6SM SKC
       
KLLQ 201722Z 2018/2118 36008KT P6SM SCT010 SCT250 
     TEMPO 2018/2020 OVC010 
     FM210000 05010KT P6SM SKC
       
KLMT 201720Z 2018/2118 VRB03KT P6SM SKC 
     FM202100 15006KT P6SM SKC 
     FM210200 VRB03KT P6SM SKC
       
KLND 201720Z 2018/2118 VRB06KT P6SM SKC 
     FM210100 24007KT P6SM SKC
       
KLNK 201721Z 2018/2118 33021G28KT P6SM SKC 
     FM202200 15006KT P6SM SKC 
     FM211700 20016G22KT P6SM SKC
       
KLNS 202110Z 2021/2118 27012KT P6SM SCT050 
     FM202300 30012G22KT P6SM BKN060 
     FM210600 32022G31KT P6SM OVC050 
     PROB30 2106/2110 P6SM -RA OVC050 
     FM211200 32018G26KT P6SM SKC
       
KLOZ 201723Z 2018/2118 26011G19KT P6SM SCT010 BKN015 
     FM201900 27014G23KT P6SM SCT035 
     FM210400 33012G20KT P6SM SKC 
     FM210700 34006KT P6SM SKC
       
KLRD 201733Z 2018/2118 36009KT P6SM OVC020 
     FM210200 34011KT P6SM OVC020 
     PROB30 2104/2109 -SHRA OVC025 
     FM210900 36013KT P6SM -DZ BKN017 OVC060
       
TAF KLRF 201500Z 2015/2121 35012KT 9999 BKN200 QNH3020INS 
     BECMG 2023/2024 34009KT 9999 SKC QNH3024INS 
     BECMG 2114/2115 06010G15KT 9999 SKC QNH3041INS 
     BECMG 2118/2119 06006KT 9999 SKC QNH3041INS TX21/2021Z TN07/2112Z
       
KLRU 201722Z 2018/2118 11011KT P6SM SCT060 BKN080 
     FM202100 12012G19KT P6SM BKN060 
     FM210200 13009KT P6SM VCSH OVC050
       
KLSE 202011Z 2020/2118 34017G28KT P6SM SCT050 
     FM202300 33012KT P6SM SKC 
     FM210100 31006KT P6SM SKC 
     FM210500 VRB04KT P6SM SKC 
     FM211200 18010KT P6SM SKC
       
TAF AMD KLSF 202100Z 2021/2123 24009KT 9999 SCT010 OVC080 QNH2994INS 
     TEMPO 2021/2022 BKN010 
     BECMG 2023/2024 31006KT 9999 BKN030 OVC050 QNH3000INS 
     BECMG 2102/2103 33009KT 9999 SCT030 QNH3008INS 
     BECMG 2111/2112 36009KT 9999 SKC QNH3022INS 
     BECMG 2115/2116 02010G15KT 9999 SKC QNH3022INS TX23/2021Z TN08/2111Z
       
TAF AMD KLSV 201724Z 2017/2121 36012KT 9999 FEW100 QNH3009INS 
     TEMPO 2017/2022 36012G18KT 510009 
     BECMG 2101/2102 03009KT 8000 -SHRA BKN070 BKN120 QNH3003INS 
     BECMG 2112/2113 04009KT 8000 -SHRA BKN050 BKN100 QNH3002INS TS OMTNS SE 
     BECMG 2120/2121 05009KT 9999 NSW SCT050 BKN100 QNH3001INS TX26/2023Z
TN15/2113Z
       
TAF KLUF 201955Z 2020/2202 12012KT 9999 FEW080 QNH2991INS 
     BECMG 2023/2024 05009KT 9999 SCT080 QNH2990INS 
     BECMG 2102/2103 03015G25KT 9999 SCT080 QNH2990INS 
     BECMG 2107/2108 02012G18KT 9999 FEW060 QNH2992INS 
     BECMG 2112/2113 03012KT 9999 FEW060 QNH2986INS 
     BECMG 2119/2120 05009KT 9999 SCT060 QNH2986INS TX31/2022Z TN21/2114Z
       
KLVK 201721Z 2018/2118 VRB03KT P6SM SKC 
     FM202000 08007KT P6SM SKC 
     FM210300 VRB03KT P6SM SKC
       
KLVM 201720Z 2018/2118 27012G25KT P6SM SKC 
     FM210300 27011KT P6SM SKC
       
KLVS 202001Z 2020/2118 18012KT P6SM FEW080 
     FM210300 18006KT P6SM FEW060 
     FM211600 20012KT P6SM SCT080
       
KLWB 201736Z 2018/2118 27012KT P6SM BKN025 
     FM202000 26014KT P6SM SCT025 
     FM202200 26014KT P6SM BKN030 
     FM210000 28011KT P6SM BKN040 
     TEMPO 2100/2103 -SHRA OVC020 
     FM210300 31013KT P6SM VCSH BKN040 
     FM211100 31010KT P6SM SCT035
       
KLWS 201730Z 2018/2118 VRB04KT P6SM SKC
       
KLWT 202006Z 2020/2118 25012KT P6SM SKC 
     TEMPO 2020/2022 25012G22KT 
     FM202200 27008KT P6SM SKC 
     FM210100 VRB05KT P6SM SKC
       
KLYH 201736Z 2018/2118 24009KT P6SM BKN045 
     FM202000 25010KT P6SM SCT045 
     FM210200 27006KT P6SM FEW250 
     FM210500 29009KT P6SM FEW045 
     FM210800 32011KT P6SM FEW250